CYYJ/YYJ METAR and TAF weather

Enter ICAO airport designator
Station Type Date Time Source
CYYJ METAR 2020/07/04 01:34 UTC NOAA

CYYJ 040134Z 05003KT 020V140 30SM -RA SCT038 BKN064 OVC090 12/12 A3014 RMK SC3SC3AC2 SLP208


Station Type Date Time Source
CYYJ Decoded METAR 2020/07/04 01:34 UTC NOAA

Victoria Int. Airport, B. C., Canada (CYYJ) 48-39N 123-26W 19M
Jul 03, 2020 - 09:34 PM EDT / 2020.07.04 0134 UTC
Wind: from the NE (050 degrees) at 3 MPH (3 KT) (direction variable):0
Visibility: 30 mile(s):0
Sky conditions: overcast
Weather: light rain
Temperature: 53 F (12 C)
Dew Point: 53 F (12 C)
Relative Humidity: 100%
Pressure (altimeter): 30.14 in. Hg (1020 hPa)
ob: CYYJ 040134Z 05003KT 020V140 30SM -RA SCT038 BKN064 OVC090 12/12 A3014 RMK SC3SC3AC2 SLP208
cycle: 1

Station Type Date Time Source
CYYJ TAF 2020/07/03 18:39 UTC NOAA

TAF CYYJ 031738Z 0318/0418 12008KT P6SM SCT015 BKN040 OVC080
TEMPO 0318/0404 4SM -SHRA BR FEW008 BKN015 OVC040
FM040400 12005KT P6SM FEW020 BKN030
TEMPO 0404/0412 BKN020
BECMG 0404/0406 23005KT
RMK NXT FCST BY 040000Z

Example: see airport list